Time;durP1;ratioP1;P1;durP2;ratioP2;P2;SDS_P1;SDS_P2;PMS_P1;PMS_P2;Temp;Humidity;BMP_temperature;BMP_pressure;BME280_temperature;BME280_humidity;BME280_pressure;Samples;Min_cycle;Max_cycle;Signal;HPM_P1;HPM_P2
2021/12/24 00:02:16;;;;;;;15.02;10.00;;;7.80;99.90;;;;;;4954335;29;20062;-56
2021/12/24 00:04:42;;;;;;;24.65;13.43;;;7.80;99.90;;;;;;4954117;28;20035;-53
2021/12/24 00:07:07;;;;;;;19.40;10.45;;;7.60;99.90;;;;;;4954715;29;20020;-54
2021/12/24 00:09:34;;;;;;;14.45;10.77;;;7.60;99.90;;;;;;4954126;29;20104;-56
2021/12/24 00:12:03;;;;;;;14.73;10.80;;;7.50;99.90;;;;;;4954345;29;20035;-51
2021/12/24 00:14:31;;;;;;;17.25;10.48;;;7.40;99.90;;;;;;4937190;29;20023;-54
2021/12/24 00:17:01;;;;;;;16.48;10.43;;;7.40;99.90;;;;;;4980174;23;20027;-57
2021/12/24 00:37:55;;;;;;;20.65;10.70;;;7.50;99.90;;;;;;4992731;28;20026;-53
2021/12/24 00:40:21;;;;;;;13.25;9.07;;;7.60;99.90;;;;;;4991658;28;20026;-57
2021/12/24 00:42:50;;;;;;;15.50;9.43;;;7.60;99.90;;;;;;4992373;28;20105;-55
2021/12/24 00:45:19;;;;;;;16.40;10.88;;;7.60;99.90;;;;;;4992672;28;20434;-57
2021/12/24 00:47:45;;;;;;;16.27;10.15;;;7.70;99.90;;;;;;4992642;28;20023;-56
2021/12/24 00:50:16;;;;;;;14.80;9.95;;;7.80;99.90;;;;;;4992127;28;20052;-57
2021/12/24 00:52:48;;;;;;;16.75;10.02;;;7.80;99.90;;;;;;4975068;28;20486;-56
2021/12/24 00:55:20;;;;;;;14.80;9.80;;;7.80;99.90;;;;;;4991978;28;20030;-53
2021/12/24 00:57:49;;;;;;;15.50;9.38;;;7.80;99.90;;;;;;4992397;28;20342;-55
2021/12/24 01:00:28;;;;;;;12.55;9.60;;;7.80;99.90;;;;;;4974385;28;20029;-55
2021/12/24 01:02:56;;;;;;;17.75;10.18;;;7.80;99.90;;;;;;4974823;28;20430;-58
2021/12/24 01:05:23;;;;;;;13.07;9.45;;;7.80;99.90;;;;;;4974836;28;20027;-57
2021/12/24 01:07:49;;;;;;;12.57;9.15;;;7.80;99.90;;;;;;4974786;28;20026;-56
2021/12/24 01:10:18;;;;;;;14.15;9.55;;;7.70;99.90;;;;;;4992204;28;20557;-50
2021/12/24 01:12:44;;;;;;;17.08;10.32;;;7.70;99.90;;;;;;4974974;28;20418;-55
2021/12/24 01:15:11;;;;;;;14.50;9.85;;;7.80;99.90;;;;;;4974794;28;20027;-56
2021/12/24 01:17:50;;;;;;;16.65;9.38;;;7.90;99.90;;;;;;4974625;28;20035;-55
2021/12/24 01:20:25;;;;;;;16.77;9.75;;;7.80;99.90;;;;;;4991952;28;20390;-56
2021/12/24 01:25:43;;;;;;;13.63;9.55;;;7.90;99.90;;;;;;4992439;28;20084;-55
2021/12/24 01:28:34;;;;;;;12.93;9.02;;;7.90;99.90;;;;;;4974731;28;20033;-54
2021/12/24 01:44:30;;;;;;;11.73;9.50;;;8.00;99.90;;;;;;4992476;28;20037;-52
2021/12/24 01:46:59;;;;;;;19.50;10.20;;;8.00;99.90;;;;;;4974355;28;20493;-56
2021/12/24 01:49:24;;;;;;;12.95;9.40;;;8.10;99.90;;;;;;4991647;28;20037;-51
2021/12/24 01:51:50;;;;;;;14.35;9.73;;;8.10;99.90;;;;;;4992028;28;20508;-54
2021/12/24 01:54:16;;;;;;;21.42;9.82;;;8.10;99.90;;;;;;4995192;28;20261;-57
2021/12/24 01:56:43;;;;;;;16.92;9.70;;;8.10;99.90;;;;;;4978217;28;20069;-54
2021/12/24 01:59:09;;;;;;;18.38;9.32;;;8.10;99.90;;;;;;4978223;28;20033;-49
2021/12/24 02:01:34;;;;;;;12.43;8.70;;;8.10;99.90;;;;;;4995963;28;20022;-56
2021/12/24 02:04:00;;;;;;;13.85;8.98;;;8.00;99.90;;;;;;4996218;28;20032;-50
2021/12/24 02:06:26;;;;;;;17.80;10.05;;;8.00;99.90;;;;;;4995343;28;20061;-52
2021/12/24 02:08:51;;;;;;;17.30;9.73;;;8.00;99.90;;;;;;4995326;28;20538;-54
2021/12/24 02:11:17;;;;;;;15.55;9.75;;;8.00;99.90;;;;;;4995071;28;20064;-54
2021/12/24 02:13:43;;;;;;;18.10;9.25;;;8.00;99.90;;;;;;4995382;28;20037;-52
2021/12/24 02:16:19;;;;;;;13.88;9.75;;;8.00;99.90;;;;;;4995300;28;20027;-53
2021/12/24 02:29:50;;;;;;;18.10;11.00;;;8.00;99.90;;;;;;4994906;28;20560;-53
2021/12/24 02:32:16;;;;;;;16.85;9.63;;;8.00;99.90;;;;;;4995011;28;20038;-52
2021/12/24 02:34:42;;;;;;;12.52;8.43;;;8.00;99.90;;;;;;4977569;28;20085;-55
2021/12/24 02:37:07;;;;;;;13.43;9.00;;;8.00;99.90;;;;;;4977463;28;20030;-55
2021/12/24 02:39:33;;;;;;;13.00;9.20;;;8.00;99.90;;;;;;4977203;28;20398;-54
2021/12/24 02:42:14;;;;;;;13.57;8.95;;;8.10;99.90;;;;;;4977174;28;20073;-55
2021/12/24 02:44:40;;;;;;;15.82;9.63;;;8.00;99.90;;;;;;4977429;28;20026;-52
2021/12/24 02:47:14;;;;;;;17.45;10.10;;;8.10;99.90;;;;;;4994852;28;20486;-52
2021/12/24 02:55:10;;;;;;;14.80;9.88;;;8.10;99.90;;;;;;4994667;28;20084;-57
2021/12/24 02:57:38;;;;;;;14.63;9.57;;;8.10;99.90;;;;;;4994581;28;20081;-53
2021/12/24 03:00:19;;;;;;;14.27;9.77;;;8.10;99.90;;;;;;4994297;28;20379;-57
2021/12/24 03:02:46;;;;;;;16.65;9.73;;;8.10;99.90;;;;;;4994469;28;20046;-54
2021/12/24 03:05:14;;;;;;;20.63;9.88;;;8.10;99.90;;;;;;4993808;28;20061;-53
2021/12/24 03:07:41;;;;;;;13.40;9.30;;;8.10;99.90;;;;;;4994727;28;20545;-58
2021/12/24 03:10:12;;;;;;;15.25;9.02;;;8.20;99.90;;;;;;4994300;28;20461;-54
2021/12/24 03:12:37;;;;;;;12.68;8.68;;;8.20;99.90;;;;;;4976725;28;20045;-54
2021/12/24 03:15:05;;;;;;;12.45;8.90;;;8.20;99.90;;;;;;4994385;28;20030;-52
2021/12/24 03:17:31;;;;;;;13.40;9.68;;;8.20;99.90;;;;;;4993990;28;20092;-58
2021/12/24 03:20:03;;;;;;;13.68;8.68;;;8.30;99.90;;;;;;4993879;28;20046;-56
2021/12/24 03:25:09;;;;;;;16.80;8.75;;;8.30;99.90;;;;;;4994597;28;20029;-53
2021/12/24 03:27:35;;;;;;;11.93;8.75;;;8.30;99.90;;;;;;4993924;28;20030;-50
2021/12/24 03:30:00;;;;;;;14.27;8.65;;;8.30;99.90;;;;;;4993784;28;20031;-54
2021/12/24 03:32:26;;;;;;;12.05;8.13;;;8.30;99.90;;;;;;4976404;28;20023;-54
2021/12/24 03:34:52;;;;;;;11.43;8.40;;;8.30;99.90;;;;;;4994065;28;20402;-55
2021/12/24 03:37:17;;;;;;;12.35;9.73;;;8.30;99.90;;;;;;4976425;28;20409;-54
2021/12/24 03:39:43;;;;;;;10.93;8.48;;;8.30;99.90;;;;;;4993391;28;20058;-55
2021/12/24 03:42:09;;;;;;;12.07;8.23;;;8.30;99.90;;;;;;4976146;28;20489;-52
2021/12/24 03:44:41;;;;;;;12.55;8.55;;;8.30;99.90;;;;;;4976305;28;20029;-56
2021/12/24 03:47:13;;;;;;;12.00;8.27;;;8.30;99.90;;;;;;4993717;28;20042;-53
2021/12/24 03:49:53;;;;;;;12.05;8.25;;;8.60;99.90;;;;;;4976040;28;20050;-51
2021/12/24 03:55:01;;;;;;;12.57;8.10;;;8.40;99.90;;;;;;4993257;28;20058;-58
2021/12/24 03:57:35;;;;;;;11.27;7.88;;;8.40;99.90;;;;;;4975950;28;20026;-57
2021/12/24 04:00:12;;;;;;;11.48;8.73;;;8.40;99.90;;;;;;4993288;28;20030;-54
2021/12/24 04:02:38;;;;;;;14.88;8.20;;;8.40;99.90;;;;;;4993293;28;20109;-51
2021/12/24 04:05:04;;;;;;;10.70;7.80;;;8.40;99.90;;;;;;4993478;28;20048;-51
2021/12/24 04:07:30;;;;;;;12.70;8.13;;;8.40;99.90;;;;;;4975803;28;20030;-52
2021/12/24 04:10:02;;;;;;;10.32;7.53;;;8.40;99.90;;;;;;4993335;28;20502;-54
2021/12/24 04:12:28;;;;;;;13.25;8.63;;;8.40;99.90;;;;;;4993158;28;20022;-48
2021/12/24 04:14:54;;;;;;;12.07;8.35;;;8.40;99.90;;;;;;4992833;28;20351;-57
2021/12/24 04:17:20;;;;;;;14.25;9.32;;;8.50;99.90;;;;;;4992852;28;20096;-54
2021/12/24 04:25:14;;;;;;;15.93;9.63;;;8.50;99.90;;;;;;4993056;28;20065;-52
2021/12/24 04:27:40;;;;;;;13.38;9.68;;;8.50;99.90;;;;;;4992745;28;20023;-53
2021/12/24 04:30:16;;;;;;;16.20;10.05;;;8.60;99.90;;;;;;4992946;28;20061;-54
2021/12/24 04:38:10;;;;;;;19.08;10.45;;;8.60;99.90;;;;;;4993332;28;20549;-56
2021/12/24 04:51:26;;;;;;;16.83;10.75;;;8.60;99.90;;;;;;4992941;28;20045;-58
2021/12/24 05:04:32;;;;;;;18.25;11.52;;;8.70;99.90;;;;;;4993438;28;20037;-58
2021/12/24 05:07:07;;;;;;;18.65;13.10;;;8.60;99.90;;;;;;4992402;28;20471;-55
2021/12/24 05:09:35;;;;;;;16.50;11.05;;;8.60;99.90;;;;;;4992760;28;20371;-58
2021/12/24 05:12:00;;;;;;;16.17;11.73;;;8.60;99.90;;;;;;4992518;28;20030;-52
2021/12/24 05:14:30;;;;;;;18.10;11.38;;;8.60;99.90;;;;;;4992197;28;20101;-56
2021/12/24 05:17:15;;;;;;;15.10;11.35;;;8.50;99.90;;;;;;4992059;28;20252;-54
2021/12/24 05:22:25;;;;;;;17.27;11.20;;;8.60;99.90;;;;;;4992081;28;20563;-54
2021/12/24 05:24:51;;;;;;;22.10;12.57;;;8.60;99.90;;;;;;4974784;28;20019;-58
2021/12/24 05:27:16;;;;;;;19.38;11.55;;;8.60;99.90;;;;;;4977079;28;20025;-55
2021/12/24 05:29:42;;;;;;;16.50;11.85;;;8.60;99.90;;;;;;4998358;28;20022;-56
2021/12/24 05:32:07;;;;;;;19.08;11.43;;;8.60;99.90;;;;;;4998775;28;20030;-54
2021/12/24 05:34:33;;;;;;;17.88;12.13;;;8.50;99.90;;;;;;4981024;28;20026;-57
2021/12/24 05:36:59;;;;;;;16.23;11.82;;;8.60;99.90;;;;;;4998491;28;20053;-49
2021/12/24 05:39:24;;;;;;;19.23;11.77;;;8.50;99.90;;;;;;4998147;28;20031;-55
2021/12/24 05:41:50;;;;;;;17.92;11.57;;;8.60;99.90;;;;;;4980756;28;20049;-54
2021/12/24 05:44:17;;;;;;;18.27;11.73;;;8.50;99.90;;;;;;4998465;28;20076;-57
2021/12/24 05:46:45;;;;;;;18.00;12.50;;;8.50;99.90;;;;;;4998488;28;20493;-53
2021/12/24 05:49:10;;;;;;;20.20;13.23;;;8.50;99.90;;;;;;4998068;28;20038;-54
2021/12/24 05:51:36;;;;;;;20.00;11.82;;;8.50;99.90;;;;;;4998508;28;20034;-53
2021/12/24 05:54:02;;;;;;;20.08;13.40;;;8.50;99.90;;;;;;4997864;28;20402;-51
2021/12/24 05:56:28;;;;;;;20.02;13.32;;;8.50;99.90;;;;;;4998410;28;20023;-51
2021/12/24 05:58:53;;;;;;;18.85;13.52;;;8.50;99.90;;;;;;4980571;28;20387;-51
2021/12/24 06:01:21;;;;;;;20.48;14.00;;;8.40;99.90;;;;;;4998049;28;20053;-52
2021/12/24 06:03:47;;;;;;;22.95;13.70;;;8.40;99.90;;;;;;4998223;28;20023;-56
2021/12/24 06:06:13;;;;;;;26.75;14.82;;;8.40;99.90;;;;;;4998320;28;20041;-56
2021/12/24 06:08:38;;;;;;;23.08;13.60;;;8.40;99.90;;;;;;4980555;28;20022;-54
2021/12/24 06:11:05;;;;;;;20.27;14.40;;;8.40;99.90;;;;;;4998035;28;20037;-55
2021/12/24 06:13:31;;;;;;;21.52;14.70;;;8.50;99.90;;;;;;4998206;28;20037;-57
2021/12/24 06:15:57;;;;;;;19.40;14.63;;;8.50;99.90;;;;;;4998235;28;20023;-55
2021/12/24 06:18:25;;;;;;;23.30;15.70;;;8.50;99.90;;;;;;5010147;23;20046;-50
2021/12/24 06:20:53;;;;;;;24.70;14.20;;;8.60;99.90;;;;;;4997708;28;20502;-54
2021/12/24 06:23:21;;;;;;;23.92;15.77;;;8.50;99.90;;;;;;4980882;28;20042;-52
2021/12/24 06:25:47;;;;;;;25.80;14.90;;;8.50;99.90;;;;;;4998543;28;20450;-51
2021/12/24 06:28:13;;;;;;;26.83;17.25;;;8.50;99.90;;;;;;4998476;28;20027;-53
2021/12/24 06:30:39;;;;;;;21.92;14.80;;;8.50;99.90;;;;;;4980682;28;20033;-54
2021/12/24 06:33:05;;;;;;;23.77;15.45;;;8.50;99.90;;;;;;4980682;28;20030;-50
2021/12/24 06:35:30;;;;;;;29.50;16.70;;;8.60;99.90;;;;;;4980586;28;20118;-55
2021/12/24 06:37:56;;;;;;;24.17;14.50;;;8.50;99.90;;;;;;4997526;28;20055;-51
2021/12/24 06:40:23;;;;;;;26.27;15.25;;;8.50;99.90;;;;;;4994268;28;20034;-55
2021/12/24 06:42:48;;;;;;;30.52;15.65;;;8.60;99.90;;;;;;4977187;28;20026;-55
2021/12/24 06:45:19;;;;;;;23.85;16.02;;;8.60;99.90;;;;;;4994745;28;20037;-52
2021/12/24 06:47:45;;;;;;;28.15;16.38;;;8.40;99.90;;;;;;4994689;28;20375;-54
2021/12/24 06:50:11;;;;;;;26.45;15.68;;;8.30;99.90;;;;;;4994443;28;20026;-52
2021/12/24 06:52:36;;;;;;;26.23;15.68;;;8.30;99.90;;;;;;4994681;28;20034;-53
2021/12/24 06:55:03;;;;;;;25.88;16.65;;;8.30;99.90;;;;;;4994213;28;20105;-55
2021/12/24 06:57:29;;;;;;;23.60;14.95;;;8.40;99.90;;;;;;4994622;28;20109;-55
2021/12/24 06:59:54;;;;;;;26.63;15.90;;;8.30;99.90;;;;;;4994135;28;20101;-54
2021/12/24 07:02:19;;;;;;;23.02;14.15;;;8.30;99.90;;;;;;4976819;28;20034;-55
2021/12/24 07:04:45;;;;;;;26.35;16.15;;;8.40;99.90;;;;;;4994446;28;20022;-54
2021/12/24 07:07:10;;;;;;;27.30;14.77;;;8.40;99.90;;;;;;4976985;28;20073;-55
2021/12/24 07:09:41;;;;;;;23.58;15.15;;;8.40;99.90;;;;;;4993944;28;20052;-56
2021/12/24 07:12:12;;;;;;;21.65;14.75;;;8.40;99.90;;;;;;4994370;28;20018;-57
2021/12/24 07:14:38;;;;;;;20.27;14.05;;;8.40;99.90;;;;;;4994228;28;20037;-53
2021/12/24 07:17:06;;;;;;;23.67;14.20;;;8.50;99.90;;;;;;4977142;28;20060;-57
2021/12/24 07:19:31;;;;;;;26.65;15.57;;;8.50;99.90;;;;;;4993613;28;20034;-52
2021/12/24 07:21:57;;;;;;;21.00;14.07;;;8.50;99.90;;;;;;4994238;28;20023;-54
2021/12/24 07:24:22;;;;;;;27.45;15.43;;;8.50;99.90;;;;;;4994139;28;20032;-55
2021/12/24 07:26:48;;;;;;;19.02;13.80;;;8.50;99.90;;;;;;4976555;28;20109;-55
2021/12/24 07:29:13;;;;;;;24.95;15.00;;;8.50;99.90;;;;;;4976343;28;20482;-54
2021/12/24 07:31:39;;;;;;;26.00;15.20;;;8.50;99.90;;;;;;4976627;28;20076;-54
2021/12/24 07:34:04;;;;;;;24.88;14.45;;;8.60;99.90;;;;;;4976714;28;20026;-53
2021/12/24 07:36:30;;;;;;;24.67;15.35;;;8.60;99.90;;;;;;4977062;28;20030;-55
2021/12/24 07:38:56;;;;;;;19.88;13.88;;;8.50;99.90;;;;;;4994136;28;20035;-57
2021/12/24 07:41:21;;;;;;;25.20;15.00;;;8.60;99.90;;;;;;4993797;28;20045;-53
2021/12/24 07:43:47;;;;;;;20.15;14.68;;;8.60;99.90;;;;;;4993627;28;20026;-54
2021/12/24 07:46:12;;;;;;;20.67;14.43;;;8.60;99.90;;;;;;4993549;28;20058;-56
2021/12/24 07:48:47;;;;;;;22.13;13.98;;;8.60;99.90;;;;;;4993671;28;20488;-56
2021/12/24 07:52:05;;;;;;;18.65;13.75;;;8.60;99.90;;;;;;4975532;28;20022;-51
2021/12/24 07:54:00;;;;;;;24.17;14.35;;;8.60;99.90;;;;;;4985663;28;20529;-54
2021/12/24 07:56:27;;;;;;;21.30;14.85;;;8.60;99.90;;;;;;4993671;28;20362;-53
2021/12/24 07:58:53;;;;;;;19.67;13.00;;;8.70;99.90;;;;;;4993414;28;20417;-55
2021/12/24 08:01:22;;;;;;;21.25;13.60;;;8.70;99.90;;;;;;4993420;28;20034;-55
2021/12/24 08:03:48;;;;;;;20.73;13.05;;;8.60;99.90;;;;;;4993617;28;20105;-56
2021/12/24 08:06:14;;;;;;;23.90;13.98;;;8.70;99.90;;;;;;4993491;28;20458;-51
2021/12/24 08:08:39;;;;;;;20.08;13.27;;;8.60;99.90;;;;;;4993573;28;20022;-55
2021/12/24 08:11:04;;;;;;;22.92;14.70;;;8.70;99.90;;;;;;4995602;28;20029;-53
2021/12/24 08:13:30;;;;;;;20.50;13.23;;;8.70;99.90;;;;;;5001727;28;20398;-51
2021/12/24 08:15:56;;;;;;;17.80;13.27;;;8.70;99.90;;;;;;5004471;28;20026;-56
2021/12/24 08:18:21;;;;;;;22.67;13.50;;;8.70;99.90;;;;;;4996960;28;20031;-57
2021/12/24 08:20:47;;;;;;;19.48;13.38;;;8.70;99.90;;;;;;4993262;28;20117;-51
2021/12/24 08:23:12;;;;;;;17.27;12.10;;;8.70;99.90;;;;;;4992946;28;20114;-55
2021/12/24 08:25:38;;;;;;;16.20;11.10;;;8.70;99.90;;;;;;4993077;28;20037;-51
2021/12/24 08:28:04;;;;;;;21.67;12.60;;;8.70;99.90;;;;;;4992886;28;20557;-49
2021/12/24 08:30:29;;;;;;;19.88;11.85;;;8.70;99.90;;;;;;4977898;28;20048;-46
2021/12/24 08:32:56;;;;;;;15.52;11.32;;;8.70;99.90;;;;;;4992804;28;20449;-50
2021/12/24 08:35:23;;;;;;;24.60;12.45;;;8.70;99.90;;;;;;4992809;28;20025;-45
2021/12/24 08:37:49;;;;;;;19.42;11.88;;;8.70;99.90;;;;;;4993027;28;20398;-49
2021/12/24 08:40:15;;;;;;;16.52;12.13;;;8.70;99.90;;;;;;4987185;28;20030;-58
2021/12/24 08:42:40;;;;;;;18.60;12.32;;;8.60;99.90;;;;;;4957199;28;20023;-57
2021/12/24 08:45:07;;;;;;;21.40;11.75;;;8.70;99.90;;;;;;4974381;28;20042;-46
2021/12/24 08:47:33;;;;;;;17.65;12.70;;;8.60;99.90;;;;;;4973229;28;20792;-49
2021/12/24 08:49:58;;;;;;;14.38;10.85;;;8.60;99.90;;;;;;4973807;28;20054;-48
2021/12/24 08:52:24;;;;;;;18.33;11.00;;;8.60;99.90;;;;;;4973122;28;20030;-46
2021/12/24 08:54:49;;;;;;;18.33;12.60;;;8.60;99.90;;;;;;4955351;28;20035;-48
2021/12/24 08:57:15;;;;;;;15.88;11.32;;;8.60;99.90;;;;;;4972865;28;20445;-48
2021/12/24 08:59:41;;;;;;;17.08;11.35;;;8.70;99.90;;;;;;4982155;28;20441;-47
2021/12/24 09:02:07;;;;;;;16.33;11.07;;;8.70;99.90;;;;;;4991529;28;20434;-46
2021/12/24 09:04:33;;;;;;;18.20;11.80;;;8.70;99.90;;;;;;4992463;28;20169;-50
2021/12/24 09:06:58;;;;;;;24.33;15.07;;;8.70;99.90;;;;;;4992403;28;20019;-48
2021/12/24 09:09:24;;;;;;;14.95;10.23;;;8.70;99.90;;;;;;4992014;28;20034;-47
2021/12/24 09:11:49;;;;;;;20.02;11.02;;;8.80;99.90;;;;;;4992096;28;20030;-49
2021/12/24 09:14:18;;;;;;;16.38;10.82;;;8.80;99.90;;;;;;4992213;28;20022;-50
2021/12/24 09:16:48;;;;;;;14.32;9.98;;;8.90;99.90;;;;;;4992371;28;20053;-45
2021/12/24 09:19:17;;;;;;;15.48;9.75;;;8.90;99.90;;;;;;4992113;28;20084;-48
2021/12/24 09:21:43;;;;;;;14.20;10.23;;;8.90;99.90;;;;;;4991931;28;20026;-47
2021/12/24 09:24:09;;;;;;;13.85;9.88;;;8.90;99.90;;;;;;4992062;28;20114;-51
2021/12/24 09:26:36;;;;;;;14.32;9.05;;;9.00;99.90;;;;;;4992197;28;20405;-49
2021/12/24 09:29:04;;;;;;;13.25;8.60;;;8.90;99.90;;;;;;4991843;28;20057;-49
2021/12/24 09:31:30;;;;;;;14.07;9.50;;;9.00;99.90;;;;;;4991901;28;20027;-49
2021/12/24 09:33:56;;;;;;;14.77;9.13;;;9.00;99.90;;;;;;4992002;28;20022;-52
2021/12/24 09:36:25;;;;;;;12.50;9.40;;;9.00;99.90;;;;;;4974463;28;20034;-49
2021/12/24 09:38:53;;;;;;;16.88;10.02;;;9.00;99.90;;;;;;4991926;28;20050;-46
2021/12/24 09:41:19;;;;;;;12.57;9.55;;;9.00;99.90;;;;;;4991693;28;20077;-50
2021/12/24 09:43:45;;;;;;;14.65;9.52;;;9.00;99.90;;;;;;4992081;28;20038;-48
2021/12/24 09:46:14;;;;;;;15.65;10.68;;;9.00;99.90;;;;;;4992013;28;20022;-47
2021/12/24 09:48:40;;;;;;;16.02;10.57;;;9.10;99.90;;;;;;4974438;28;20057;-45
2021/12/24 09:51:06;;;;;;;14.48;9.23;;;9.10;99.90;;;;;;4991506;28;20054;-46
2021/12/24 09:53:32;;;;;;;15.98;11.57;;;9.10;99.90;;;;;;4974354;28;20073;-44
2021/12/24 09:55:58;;;;;;;14.35;10.75;;;9.00;99.90;;;;;;4991832;28;20031;-45
2021/12/24 09:58:23;;;;;;;14.23;10.68;;;9.00;99.90;;;;;;4991793;28;20027;-45
2021/12/24 10:00:49;;;;;;;17.15;11.07;;;9.00;99.90;;;;;;4974075;28;20037;-47
2021/12/24 10:03:32;;;;;;;19.08;11.60;;;8.90;99.90;;;;;;4991660;28;20027;-48
2021/12/24 10:05:58;;;;;;;14.45;10.25;;;8.90;99.90;;;;;;4991981;28;20019;-50
2021/12/24 10:08:26;;;;;;;16.05;10.55;;;8.90;99.90;;;;;;4991546;28;20030;-48
2021/12/24 10:11:00;;;;;;;20.40;12.30;;;8.90;99.90;;;;;;4991433;28;20102;-48
2021/12/24 10:13:30;;;;;;;15.25;11.55;;;8.90;99.90;;;;;;4991919;28;20027;-48
2021/12/24 10:16:15;;;;;;;20.20;11.57;;;8.90;99.90;;;;;;4986825;28;20039;-47
2021/12/24 10:18:44;;;;;;;18.33;11.82;;;8.90;99.90;;;;;;4981161;28;20037;-47
2021/12/24 10:21:14;;;;;;;16.10;10.85;;;8.90;99.90;;;;;;4983720;28;20035;-44
2021/12/24 10:23:44;;;;;;;17.35;11.18;;;8.90;99.90;;;;;;5002481;28;20218;-48
2021/12/24 10:26:17;;;;;;;20.98;12.30;;;8.90;99.90;;;;;;4987074;28;20089;-49
2021/12/24 10:28:50;;;;;;;21.20;11.70;;;8.90;99.90;;;;;;4975632;28;20043;-47
2021/12/24 10:31:22;;;;;;;16.10;11.57;;;8.90;99.90;;;;;;4976520;28;20027;-50
2021/12/24 10:34:08;;;;;;;19.00;11.13;;;8.80;99.90;;;;;;4980448;28;20044;-49
2021/12/24 10:36:57;;;;;;;21.08;12.43;;;8.80;99.90;;;;;;4995160;28;20023;-48
2021/12/24 10:39:29;;;;;;;18.98;10.93;;;8.80;99.90;;;;;;4982138;28;20022;-51
2021/12/24 10:41:56;;;;;;;17.92;11.32;;;8.80;99.90;;;;;;4958234;28;20023;-48
2021/12/24 10:44:28;;;;;;;15.43;9.82;;;8.90;99.90;;;;;;4975490;28;20041;-45
2021/12/24 10:47:05;;;;;;;14.77;10.50;;;9.00;99.90;;;;;;4975547;28;20110;-48
2021/12/24 10:55:04;;;;;;;18.77;10.60;;;9.00;99.90;;;;;;4994893;28;20026;-46
2021/12/24 10:57:35;;;;;;;16.83;10.13;;;9.00;99.90;;;;;;4994052;28;20038;-47
2021/12/24 11:00:17;;;;;;;14.98;9.90;;;9.00;99.90;;;;;;4975996;28;20022;-52
2021/12/24 11:02:47;;;;;;;26.02;13.55;;;9.00;99.90;;;;;;4976839;28;20110;-52
2021/12/24 11:05:24;;;;;;;17.42;10.82;;;9.10;99.90;;;;;;4994876;28;20027;-51
2021/12/24 11:07:51;;;;;;;15.43;9.73;;;9.10;99.90;;;;;;4982434;28;20078;-48
2021/12/24 11:10:19;;;;;;;17.63;11.48;;;9.00;99.90;;;;;;4973999;28;20034;-50
2021/12/24 11:13:10;;;;;;;13.82;9.32;;;9.00;99.90;;;;;;4993095;28;20032;-48
2021/12/24 11:15:50;;;;;;;14.30;10.38;;;8.90;99.90;;;;;;4974800;28;20089;-61
2021/12/24 11:18:28;;;;;;;20.17;10.20;;;8.90;99.90;;;;;;5004239;28;20045;-55
2021/12/24 11:21:05;;;;;;;11.88;9.55;;;9.00;99.90;;;;;;4959081;28;20030;-55
2021/12/24 11:23:34;;;;;;;18.80;9.73;;;8.90;99.90;;;;;;4991858;28;20037;-51
2021/12/24 11:26:21;;;;;;;14.65;10.32;;;9.00;99.90;;;;;;4974206;28;20025;-57
2021/12/24 11:28:47;;;;;;;15.35;9.82;;;9.00;99.90;;;;;;4976901;28;20394;-53
2021/12/24 11:31:23;;;;;;;14.00;10.98;;;9.00;99.90;;;;;;4991202;28;20034;-53
2021/12/24 11:33:51;;;;;;;16.27;10.65;;;9.10;99.90;;;;;;4989244;28;20058;-53
2021/12/24 11:36:19;;;;;;;14.18;10.07;;;9.00;99.90;;;;;;4961498;28;20113;-52
2021/12/24 11:38:50;;;;;;;16.38;9.90;;;9.20;99.90;;;;;;4978016;28;20402;-56
2021/12/24 11:41:19;;;;;;;17.33;11.10;;;9.20;99.90;;;;;;4976129;28;20031;-52
2021/12/24 11:43:48;;;;;;;11.68;9.70;;;9.20;99.90;;;;;;4990515;28;20049;-52
2021/12/24 11:46:17;;;;;;;13.20;10.23;;;9.20;99.90;;;;;;4973609;28;20035;-50
2021/12/24 11:48:47;;;;;;;13.48;9.68;;;9.20;99.90;;;;;;4980059;28;20033;-54
2021/12/24 11:51:21;;;;;;;12.88;9.68;;;9.20;99.90;;;;;;4992701;28;20022;-56
2021/12/24 11:53:48;;;;;;;13.32;9.60;;;9.20;99.90;;;;;;4979592;28;20059;-55
2021/12/24 11:56:16;;;;;;;13.25;9.70;;;9.20;99.90;;;;;;4973010;28;20023;-54
2021/12/24 11:58:46;;;;;;;13.13;9.40;;;9.20;99.90;;;;;;4990369;28;20022;-52
2021/12/24 12:01:16;;;;;;;11.73;8.38;;;9.20;99.90;;;;;;4992261;28;20031;-50
2021/12/24 12:03:52;;;;;;;13.27;9.70;;;9.20;99.90;;;;;;4990719;28;20026;-49
2021/12/24 12:06:17;;;;;;;;;;;9.20;99.90;;;;;;4977072;28;20026;-51
2021/12/24 12:08:46;;;;;;;;;;;9.20;99.90;;;;;;4972148;28;19965;-47
2021/12/24 12:11:20;;;;;;;11.15;7.82;;;9.20;99.90;;;;;;4971498;28;19910;-49
2021/12/24 12:13:53;;;;;;;15.70;7.95;;;9.30;99.90;;;;;;4971533;28;20054;-52
2021/12/24 12:16:29;;;;;;;10.35;7.72;;;9.30;99.90;;;;;;4972458;28;20025;-51
2021/12/24 12:19:22;;;;;;;13.80;8.57;;;9.30;99.90;;;;;;4989940;23;20506;-49
2021/12/24 12:22:12;;;;;;;15.00;8.93;;;9.30;99.90;;;;;;4993279;28;20150;-48
2021/12/24 12:27:26;;;;;;;13.43;9.30;;;9.20;99.90;;;;;;4993405;28;20126;-48
2021/12/24 12:29:51;;;;;;;13.30;9.00;;;9.20;99.90;;;;;;4975298;28;20109;-49
2021/12/24 12:32:17;;;;;;;12.38;8.50;;;9.20;99.90;;;;;;4993560;28;20434;-49
2021/12/24 12:34:46;;;;;;;13.43;8.55;;;9.10;99.90;;;;;;4975990;28;20329;-47
2021/12/24 12:37:31;;;;;;;9.75;8.00;;;9.10;99.90;;;;;;4992766;28;20037;-54
2021/12/24 12:40:06;;;;;;;11.60;7.83;;;9.10;99.90;;;;;;4992471;28;20030;-46
2021/12/24 12:42:50;;;;;;;12.48;7.00;;;9.10;99.90;;;;;;4992666;28;20527;-47
2021/12/24 12:45:21;;;;;;;11.45;7.75;;;9.00;99.90;;;;;;4993010;28;20493;-51
2021/12/24 12:47:55;;;;;;;8.75;7.70;;;9.10;99.90;;;;;;4993284;28;20026;-49
2021/12/24 12:50:22;;;;;;;12.60;8.35;;;9.20;99.90;;;;;;4992359;28;20035;-46
2021/12/24 12:52:49;;;;;;;9.38;7.38;;;9.20;99.90;;;;;;4992316;28;20401;-49
2021/12/24 12:55:30;;;;;;;10.02;8.15;;;9.20;99.90;;;;;;4992686;28;20033;-52
2021/12/24 12:58:22;;;;;;;10.32;7.63;;;9.20;99.90;;;;;;4989307;28;20185;-47
2021/12/24 13:01:09;;;;;;;10.90;8.30;;;9.20;99.90;;;;;;4982796;28;20031;-52
2021/12/24 13:03:57;;;;;;;13.20;8.27;;;9.20;99.90;;;;;;4984159;28;20053;-47
2021/12/24 13:06:23;;;;;;;9.70;7.30;;;9.20;99.90;;;;;;4998116;28;20022;-45
2021/12/24 13:08:49;;;;;;;10.88;6.88;;;9.20;99.90;;;;;;4963154;28;20220;-46
2021/12/24 13:11:22;;;;;;;12.13;7.05;;;9.20;99.90;;;;;;4980002;28;20036;-49
2021/12/24 13:13:53;;;;;;;10.38;7.78;;;9.20;99.90;;;;;;4981393;28;20031;-48
2021/12/24 13:16:23;;;;;;;10.25;6.75;;;9.20;99.90;;;;;;4990633;28;20026;-46
2021/12/24 13:18:59;;;;;;;8.95;6.65;;;9.20;99.90;;;;;;4982065;28;20023;-48
2021/12/24 13:24:09;;;;;;;9.32;6.38;;;9.30;99.90;;;;;;4988698;28;20490;-56
2021/12/24 13:26:35;;;;;;;8.02;6.47;;;9.30;99.90;;;;;;4966241;28;20039;-52
2021/12/24 13:29:03;;;;;;;8.32;6.38;;;9.30;99.90;;;;;;4972285;28;20084;-49
2021/12/24 13:31:30;;;;;;;10.23;6.57;;;9.20;99.90;;;;;;4975595;28;20046;-49
2021/12/24 13:33:56;;;;;;;11.88;7.18;;;9.20;99.90;;;;;;4992488;28;20018;-54
2021/12/24 13:36:28;;;;;;;9.35;6.85;;;9.30;99.90;;;;;;4986699;28;20093;-54
2021/12/24 13:39:12;;;;;;;8.02;6.05;;;9.20;99.90;;;;;;4972363;28;20042;-49
2021/12/24 13:41:39;;;;;;;8.80;5.60;;;9.30;99.90;;;;;;4956371;28;20045;-48
2021/12/24 13:44:07;;;;;;;7.95;5.78;;;9.20;99.90;;;;;;4972830;28;20054;-50
2021/12/24 13:46:34;;;;;;;6.43;5.70;;;9.30;99.90;;;;;;4956122;28;20050;-52
2021/12/24 13:54:31;;;;;;;5.70;4.63;;;9.30;99.90;;;;;;4976111;28;20106;-46
2021/12/24 13:56:57;;;;;;;7.20;5.10;;;9.40;99.90;;;;;;4985754;28;20154;-48
2021/12/24 13:59:24;;;;;;;5.38;4.88;;;9.40;99.90;;;;;;4987137;28;20185;-45
2021/12/24 14:01:50;;;;;;;5.03;4.53;;;9.40;99.90;;;;;;4976881;28;20027;-49
2021/12/24 14:04:19;;;;;;;5.72;5.03;;;9.30;99.90;;;;;;4986809;28;20026;-53
2021/12/24 14:06:49;;;;;;;7.15;5.70;;;9.40;99.90;;;;;;4973708;28;20025;-47
2021/12/24 14:09:19;;;;;;;5.38;4.60;;;9.40;99.90;;;;;;4970522;28;20062;-50
2021/12/24 14:11:48;;;;;;;4.63;4.22;;;9.30;99.90;;;;;;4993626;28;20035;-53
2021/12/24 14:14:20;;;;;;;5.13;4.07;;;9.20;99.90;;;;;;4994659;28;20022;-52
2021/12/24 14:19:45;;;;;;;6.40;5.00;;;9.30;99.90;;;;;;4974830;28;20041;-48
2021/12/24 14:22:13;;;;;;;5.05;4.38;;;9.40;99.90;;;;;;4980495;28;20022;-50
2021/12/24 14:24:52;;;;;;;4.47;4.07;;;9.40;99.90;;;;;;4983689;28;20026;-56
2021/12/24 14:27:19;;;;;;;5.10;4.47;;;9.30;99.90;;;;;;4987360;28;20023;-52
2021/12/24 14:29:47;;;;;;;5.63;4.72;;;9.40;99.90;;;;;;4976680;28;20035;-50
2021/12/24 14:32:26;;;;;;;4.78;4.22;;;9.30;99.90;;;;;;4976465;28;20606;-49
2021/12/24 14:34:54;;;;;;;5.18;4.38;;;9.40;99.90;;;;;;4984788;28;20041;-51
2021/12/24 14:37:32;;;;;;;5.00;4.50;;;9.40;99.90;;;;;;4964158;28;20035;-47
2021/12/24 14:40:13;;;;;;;4.63;4.18;;;9.40;99.90;;;;;;4984291;28;20537;-50
2021/12/24 14:42:41;;;;;;;6.30;4.22;;;9.40;99.90;;;;;;4973988;28;20688;-48
2021/12/24 14:45:26;;;;;;;5.80;5.15;;;9.50;99.90;;;;;;4963359;28;20113;-46